Time;durP1;ratioP1;P1;durP2;ratioP2;P2;SDS_P1;SDS_P2;PMS_P1;PMS_P2;Temp;Humidity;BMP_temperature;BMP_pressure;BME280_temperature;BME280_humidity;BME280_pressure;Samples;Min_cycle;Max_cycle;Signal;HPM_P1;HPM_P2
2022/08/07 00:01:34;;;;;;;2.45;1.50;;;23.30;79.70;;;;;;5052129;28;20021;-59
2022/08/07 00:04:00;;;;;;;3.28;1.48;;;23.30;79.80;;;;;;5052271;28;20044;-59
2022/08/07 00:06:26;;;;;;;2.47;1.30;;;23.20;79.90;;;;;;5052304;28;20055;-60
2022/08/07 00:08:52;;;;;;;2.35;1.50;;;23.10;80.00;;;;;;5050988;28;20095;-59
2022/08/07 00:11:18;;;;;;;2.75;1.60;;;23.10;80.00;;;;;;5052653;28;20025;-59
2022/08/07 00:13:44;;;;;;;2.72;1.25;;;23.10;80.30;;;;;;5052110;28;20428;-59
2022/08/07 00:16:11;;;;;;;6.05;1.33;;;23.10;80.30;;;;;;5051717;28;20017;-59
2022/08/07 00:18:37;;;;;;;3.63;1.40;;;23.00;80.20;;;;;;5052109;28;20036;-59
2022/08/07 00:21:05;;;;;;;3.67;1.17;;;23.10;80.40;;;;;;5051986;28;20051;-60
2022/08/07 00:23:32;;;;;;;2.75;1.40;;;23.00;80.30;;;;;;5052087;28;20029;-59
2022/08/07 00:26:00;;;;;;;3.60;1.30;;;22.90;80.60;;;;;;5051895;28;20033;-59
2022/08/07 00:28:27;;;;;;;3.10;1.50;;;22.80;80.70;;;;;;5051880;28;20021;-59
2022/08/07 00:30:52;;;;;;;4.18;1.30;;;22.90;80.80;;;;;;5052068;28;20039;-60
2022/08/07 00:33:18;;;;;;;2.20;1.27;;;22.80;80.80;;;;;;5051885;28;20029;-59
2022/08/07 00:35:44;;;;;;;3.75;1.50;;;22.70;81.00;;;;;;5051751;28;20470;-60
2022/08/07 00:38:09;;;;;;;6.75;1.40;;;22.70;81.10;;;;;;5051670;28;20481;-59
2022/08/07 00:40:37;;;;;;;2.95;1.33;;;22.70;81.10;;;;;;5050227;28;20040;-59
2022/08/07 00:43:03;;;;;;;3.28;1.40;;;22.60;81.30;;;;;;5051660;28;20045;-59
2022/08/07 00:45:29;;;;;;;3.53;1.60;;;22.60;81.50;;;;;;5051739;28;20033;-59
2022/08/07 00:47:55;;;;;;;6.88;1.50;;;22.50;81.50;;;;;;5051343;28;20033;-60
2022/08/07 00:50:20;;;;;;;3.92;1.20;;;22.50;81.60;;;;;;5051488;28;20025;-59
2022/08/07 00:52:46;;;;;;;4.22;1.25;;;22.50;81.80;;;;;;5052180;28;20029;-60
2022/08/07 00:55:12;;;;;;;2.20;1.27;;;22.50;81.90;;;;;;5051558;28;20480;-59
2022/08/07 00:57:38;;;;;;;3.97;1.20;;;22.40;82.10;;;;;;5051685;28;20013;-59
2022/08/07 01:00:06;;;;;;;2.17;1.15;;;22.30;82.30;;;;;;5049999;28;20495;-59
2022/08/07 01:02:32;;;;;;;3.10;1.20;;;22.40;82.20;;;;;;5052014;28;20031;-59
2022/08/07 01:04:58;;;;;;;3.35;1.25;;;22.30;82.20;;;;;;5051589;28;20025;-59
2022/08/07 01:07:25;;;;;;;3.95;1.50;;;22.30;82.50;;;;;;5051696;28;20095;-59
2022/08/07 01:09:51;;;;;;;1.63;1.27;;;22.20;82.50;;;;;;5051355;28;20048;-59
2022/08/07 01:12:17;;;;;;;5.25;1.40;;;22.20;82.60;;;;;;5051069;28;20064;-60
2022/08/07 01:14:43;;;;;;;1.88;1.20;;;22.20;82.90;;;;;;5051543;28;20485;-59
2022/08/07 01:17:09;;;;;;;2.83;1.20;;;22.10;83.10;;;;;;5051853;28;20023;-60
2022/08/07 01:19:36;;;;;;;3.92;1.60;;;22.10;83.70;;;;;;5050046;28;20032;-59
2022/08/07 01:22:03;;;;;;;2.53;1.40;;;22.00;83.10;;;;;;5051558;28;20504;-60
2022/08/07 01:24:30;;;;;;;5.70;1.55;;;22.00;83.40;;;;;;5051664;28;20067;-59
2022/08/07 01:26:57;;;;;;;4.45;1.40;;;22.00;83.40;;;;;;5051142;28;20078;-59
2022/08/07 01:29:25;;;;;;;2.20;1.10;;;22.00;83.40;;;;;;5051413;28;20048;-60
2022/08/07 01:31:51;;;;;;;4.65;1.60;;;21.90;83.80;;;;;;5051395;28;20025;-60
2022/08/07 01:34:17;;;;;;;2.28;1.20;;;21.90;83.80;;;;;;5050229;28;20037;-59
2022/08/07 01:36:44;;;;;;;3.60;1.30;;;21.90;83.90;;;;;;5051234;28;20542;-59
2022/08/07 01:39:10;;;;;;;3.22;1.30;;;21.90;83.90;;;;;;5051052;28;20025;-60
2022/08/07 01:41:38;;;;;;;4.43;1.40;;;21.80;84.00;;;;;;5051178;28;20844;-60
2022/08/07 01:44:04;;;;;;;3.55;1.13;;;21.70;84.10;;;;;;5051022;28;20052;-60
2022/08/07 01:46:29;;;;;;;3.70;1.30;;;21.70;84.40;;;;;;5051124;28;20047;-59
2022/08/07 01:48:55;;;;;;;3.28;1.10;;;21.70;84.40;;;;;;5051380;28;20470;-60
2022/08/07 01:51:23;;;;;;;1.58;1.15;;;21.60;84.60;;;;;;5051332;28;20036;-59
2022/08/07 01:53:52;;;;;;;3.17;1.23;;;21.60;84.80;;;;;;5053769;28;20090;-60
2022/08/07 01:56:35;;;;;;;5.95;1.30;;;21.50;84.80;;;;;;5054277;28;20075;-59
2022/08/07 01:59:08;;;;;;;2.65;1.30;;;21.50;84.90;;;;;;5054746;28;20035;-60
2022/08/07 02:01:45;;;;;;;2.50;1.33;;;21.50;85.10;;;;;;5055109;28;20044;-60
2022/08/07 02:04:37;;;;;;;2.55;1.48;;;21.40;85.20;;;;;;5052963;28;20100;-59
2022/08/07 02:07:05;;;;;;;3.38;1.27;;;21.30;85.40;;;;;;5051653;28;20056;-59
2022/08/07 02:09:32;;;;;;;2.47;1.20;;;21.40;85.60;;;;;;5054112;28;20056;-59
2022/08/07 02:12:15;;;;;;;2.78;1.20;;;21.40;85.60;;;;;;5054160;28;20486;-59
2022/08/07 02:14:45;;;;;;;2.72;1.35;;;21.30;85.70;;;;;;5054424;28;20036;-59
2022/08/07 02:17:14;;;;;;;3.35;1.20;;;21.20;85.80;;;;;;5054627;28;20029;-59
2022/08/07 02:19:42;;;;;;;3.00;1.40;;;21.30;85.80;;;;;;5054148;28;20035;-59
2022/08/07 02:22:11;;;;;;;1.80;1.08;;;21.10;86.10;;;;;;5053995;28;20025;-59
2022/08/07 02:24:41;;;;;;;3.00;1.35;;;21.10;86.20;;;;;;5054293;28;20128;-59
2022/08/07 02:27:07;;;;;;;3.85;1.45;;;21.00;86.50;;;;;;5053740;28;20033;-59
2022/08/07 02:29:34;;;;;;;5.45;1.25;;;21.00;86.40;;;;;;5053191;28;20068;-59
2022/08/07 02:32:02;;;;;;;4.32;1.35;;;21.00;86.60;;;;;;5054117;28;20017;-60
2022/08/07 02:34:29;;;;;;;6.20;1.30;;;20.90;86.60;;;;;;5053862;28;20029;-59
2022/08/07 02:36:57;;;;;;;3.45;1.50;;;20.90;86.80;;;;;;5053972;28;20100;-60
2022/08/07 02:39:24;;;;;;;4.05;1.40;;;20.90;86.80;;;;;;5053705;28;20029;-60
2022/08/07 02:41:51;;;;;;;4.32;1.50;;;20.80;87.10;;;;;;5054154;28;20021;-60
2022/08/07 02:44:18;;;;;;;4.25;1.40;;;20.80;87.00;;;;;;5053707;28;20049;-59
2022/08/07 02:46:47;;;;;;;3.00;1.30;;;20.80;87.20;;;;;;5053688;28;20055;-59
2022/08/07 02:49:13;;;;;;;3.83;1.35;;;20.80;87.30;;;;;;5053690;28;20059;-60
2022/08/07 02:51:42;;;;;;;1.95;1.27;;;20.70;87.50;;;;;;5053834;28;20575;-59
2022/08/07 02:54:10;;;;;;;5.00;1.30;;;20.70;87.60;;;;;;5053064;28;20025;-60
2022/08/07 02:56:38;;;;;;;4.88;1.33;;;20.60;87.60;;;;;;5053390;28;20021;-59
2022/08/07 02:59:09;;;;;;;3.67;1.40;;;20.60;87.80;;;;;;5053600;28;20033;-60
2022/08/07 03:01:37;;;;;;;2.83;1.35;;;20.60;88.10;;;;;;5052377;28;20049;-59
2022/08/07 03:04:05;;;;;;;5.18;1.30;;;20.50;88.10;;;;;;5053320;28;20432;-60
2022/08/07 03:06:33;;;;;;;2.22;1.20;;;20.40;88.20;;;;;;5052825;28;20047;-59
2022/08/07 03:09:03;;;;;;;2.80;1.38;;;20.40;88.30;;;;;;5052963;28;20017;-59
2022/08/07 03:11:30;;;;;;;6.30;1.40;;;20.40;88.30;;;;;;5053228;28;20378;-59
2022/08/07 03:13:56;;;;;;;1.67;1.15;;;20.40;88.60;;;;;;5052972;28;20025;-60
2022/08/07 03:16:23;;;;;;;5.90;1.40;;;20.40;88.80;;;;;;5053040;28;20044;-59
2022/08/07 03:18:48;;;;;;;2.25;1.20;;;20.40;88.90;;;;;;5052865;28;20060;-60
2022/08/07 03:21:15;;;;;;;2.88;1.10;;;20.30;88.80;;;;;;5053058;28;20061;-60
2022/08/07 03:23:43;;;;;;;3.17;1.17;;;20.20;89.00;;;;;;5052814;28;20418;-60
2022/08/07 03:26:10;;;;;;;4.20;1.23;;;20.20;89.10;;;;;;5053094;28;20405;-59
2022/08/07 03:28:39;;;;;;;5.00;1.30;;;20.20;89.00;;;;;;5052861;28;20025;-60
2022/08/07 03:31:17;;;;;;;5.22;1.48;;;20.10;89.40;;;;;;5051416;28;20025;-60
2022/08/07 03:33:47;;;;;;;5.05;1.30;;;20.10;89.50;;;;;;5052466;28;20477;-60
2022/08/07 03:36:13;;;;;;;2.13;1.20;;;20.10;89.80;;;;;;5053059;28;20074;-60
2022/08/07 03:38:41;;;;;;;3.58;1.20;;;20.00;89.40;;;;;;5052306;28;20029;-59
2022/08/07 03:41:08;;;;;;;1.50;1.10;;;20.00;90.00;;;;;;5052625;28;20032;-60
2022/08/07 03:43:36;;;;;;;3.63;1.30;;;19.90;90.00;;;;;;5052606;28;20049;-59
2022/08/07 03:46:03;;;;;;;2.78;1.20;;;19.90;90.00;;;;;;5052604;28;20508;-59
2022/08/07 03:48:30;;;;;;;4.28;1.23;;;19.90;90.10;;;;;;5052299;28;20498;-60
2022/08/07 03:50:56;;;;;;;2.28;1.20;;;19.80;90.10;;;;;;5052908;28;20086;-59
2022/08/07 03:53:22;;;;;;;3.75;1.50;;;19.80;90.20;;;;;;5052050;28;20041;-60
2022/08/07 03:55:49;;;;;;;2.75;1.20;;;19.70;90.40;;;;;;5052259;28;20013;-59
2022/08/07 03:58:17;;;;;;;3.83;1.10;;;19.70;90.30;;;;;;5052265;28;20037;-60
2022/08/07 04:00:45;;;;;;;2.70;1.15;;;19.70;90.40;;;;;;5052461;28;20045;-60
2022/08/07 04:03:12;;;;;;;3.35;1.30;;;19.70;90.30;;;;;;5052291;28;20517;-59
2022/08/07 04:05:37;;;;;;;2.70;1.20;;;19.60;90.60;;;;;;5052689;28;20021;-59
2022/08/07 04:08:03;;;;;;;3.85;1.35;;;19.60;90.50;;;;;;5051882;28;20086;-59
2022/08/07 04:10:30;;;;;;;2.15;1.10;;;19.50;90.50;;;;;;5052156;28;20104;-60
2022/08/07 04:12:56;;;;;;;1.95;1.23;;;19.40;90.60;;;;;;5052130;28;20029;-59
2022/08/07 04:15:22;;;;;;;2.53;1.20;;;19.40;90.70;;;;;;5051930;28;20090;-60
2022/08/07 04:17:48;;;;;;;3.80;1.10;;;19.40;90.60;;;;;;5051726;28;20029;-59
2022/08/07 04:20:15;;;;;;;3.10;1.40;;;19.40;90.90;;;;;;5051919;28;20048;-60
2022/08/07 04:22:41;;;;;;;4.45;1.10;;;19.30;90.90;;;;;;5051565;28;20036;-59
2022/08/07 04:25:08;;;;;;;3.35;1.45;;;19.30;90.80;;;;;;5051918;28;20074;-60
2022/08/07 04:27:34;;;;;;;3.42;1.20;;;19.20;91.10;;;;;;5051852;28;20041;-59
2022/08/07 04:30:00;;;;;;;3.05;1.20;;;19.20;90.80;;;;;;5052353;28;20078;-60
2022/08/07 04:32:26;;;;;;;2.30;1.20;;;19.20;91.10;;;;;;5051588;28;20219;-59
2022/08/07 04:34:52;;;;;;;1.83;1.00;;;19.10;90.90;;;;;;5050490;28;20404;-59
2022/08/07 04:37:19;;;;;;;4.63;1.30;;;18.90;91.20;;;;;;5051945;28;20067;-60
2022/08/07 04:39:45;;;;;;;2.97;1.20;;;18.90;91.20;;;;;;5051618;28;20067;-60
2022/08/07 04:42:11;;;;;;;3.88;1.38;;;18.90;91.30;;;;;;5051733;28;20029;-59
2022/08/07 04:44:37;;;;;;;3.55;1.30;;;18.90;91.50;;;;;;5051835;28;20049;-60
2022/08/07 04:47:15;;;;;;;3.60;1.50;;;18.90;91.30;;;;;;5052044;28;20040;-59
2022/08/07 04:49:43;;;;;;;6.20;1.30;;;18.80;91.40;;;;;;5051684;28;20493;-59
2022/08/07 04:52:23;;;;;;;3.28;1.15;;;18.70;91.70;;;;;;5051424;28;20052;-59
2022/08/07 04:55:10;;;;;;;3.88;1.48;;;18.60;91.80;;;;;;5051712;28;20033;-59
2022/08/07 04:58:09;;;;;;;1.80;1.20;;;18.60;91.40;;;;;;5051558;28;20108;-60
2022/08/07 05:00:44;;;;;;;2.65;1.35;;;18.60;91.70;;;;;;5051444;28;20025;-60
2022/08/07 05:03:10;;;;;;;3.35;1.15;;;18.50;91.90;;;;;;5051620;28;20044;-59
2022/08/07 05:05:53;;;;;;;2.50;1.35;;;18.50;91.80;;;;;;5051236;28;20025;-59
2022/08/07 05:08:37;;;;;;;3.47;1.20;;;18.40;91.90;;;;;;5051758;28;20104;-60
2022/08/07 05:11:12;;;;;;;3.33;1.30;;;18.40;91.80;;;;;;5051794;28;20051;-59
2022/08/07 05:13:46;;;;;;;1.42;1.30;;;18.40;92.00;;;;;;5051387;28;20462;-59
2022/08/07 05:16:13;;;;;;;;;;;18.40;91.90;;;;;;5051611;28;20025;-59
2022/08/07 05:18:52;;;;;;;3.20;1.30;;;18.30;92.00;;;;;;5051476;28;19905;-59
2022/08/07 05:21:22;;;;;;;3.13;1.20;;;18.40;92.30;;;;;;5051373;28;20116;-59
2022/08/07 05:23:58;;;;;;;4.32;1.30;;;18.30;91.80;;;;;;5051650;28;20025;-59
2022/08/07 05:26:27;;;;;;;2.40;1.38;;;18.40;92.30;;;;;;5051392;28;20399;-59
2022/08/07 05:28:56;;;;;;;3.05;1.10;;;18.20;92.20;;;;;;5054747;28;20045;-60
2022/08/07 05:31:26;;;;;;;2.47;1.17;;;18.20;92.40;;;;;;5055623;28;20393;-59
2022/08/07 05:33:53;;;;;;;1.92;1.10;;;18.30;92.00;;;;;;5054315;28;20387;-59
2022/08/07 05:36:22;;;;;;;2.33;1.30;;;18.30;91.80;;;;;;5055400;28;20017;-59
2022/08/07 05:38:50;;;;;;;2.75;1.10;;;18.30;92.00;;;;;;5054690;28;20029;-60
2022/08/07 05:41:16;;;;;;;2.78;1.05;;;18.40;91.90;;;;;;5054967;28;20017;-59
2022/08/07 05:43:46;;;;;;;2.60;1.10;;;18.40;92.10;;;;;;5055147;28;20109;-59
2022/08/07 05:46:14;;;;;;;2.05;1.10;;;18.40;91.90;;;;;;5054677;28;20486;-59
2022/08/07 05:48:41;;;;;;;3.85;1.30;;;18.40;91.90;;;;;;5054579;28;20112;-59
2022/08/07 05:51:08;;;;;;;2.58;1.20;;;18.30;92.00;;;;;;5054697;28;20033;-59
2022/08/07 05:53:34;;;;;;;3.58;1.20;;;18.30;92.20;;;;;;5054393;28;20033;-59
2022/08/07 05:56:02;;;;;;;3.55;1.30;;;18.40;92.00;;;;;;5054427;28;20025;-59
2022/08/07 05:58:29;;;;;;;2.85;1.20;;;18.40;91.80;;;;;;5054739;28;20044;-59
2022/08/07 06:00:56;;;;;;;4.18;1.40;;;18.40;91.90;;;;;;5054567;28;20020;-59
2022/08/07 06:03:23;;;;;;;4.15;1.20;;;18.40;91.70;;;;;;5054225;28;20025;-59
2022/08/07 06:05:50;;;;;;;3.40;1.48;;;18.50;92.10;;;;;;5054565;28;20044;-59
2022/08/07 06:08:16;;;;;;;2.17;1.25;;;18.50;92.00;;;;;;5054696;28;20028;-59
2022/08/07 06:10:42;;;;;;;1.88;1.10;;;18.50;91.60;;;;;;5054392;28;20082;-59
2022/08/07 06:13:09;;;;;;;3.03;1.20;;;18.60;91.80;;;;;;5054134;28;20033;-60
2022/08/07 06:15:35;;;;;;;3.20;1.05;;;18.80;91.70;;;;;;5054865;28;20029;-59
2022/08/07 06:18:02;;;;;;;3.30;1.40;;;18.90;91.30;;;;;;5053918;28;20032;-59
2022/08/07 06:20:33;;;;;;;2.47;1.08;;;19.20;91.00;;;;;;5054401;28;20376;-59
2022/08/07 06:23:00;;;;;;;2.80;1.02;;;19.40;91.40;;;;;;5054256;28;20079;-59
2022/08/07 06:25:26;;;;;;;4.35;1.35;;;19.80;90.30;;;;;;5054167;28;20025;-59
2022/08/07 06:28:02;;;;;;;5.00;1.23;;;20.10;90.70;;;;;;5054103;28;20075;-59
2022/08/07 06:30:28;;;;;;;2.88;1.30;;;20.40;88.90;;;;;;5054147;28;20028;-60
2022/08/07 06:32:54;;;;;;;4.35;1.25;;;20.80;87.50;;;;;;5053649;28;20021;-59
2022/08/07 06:35:19;;;;;;;2.97;1.10;;;21.10;86.10;;;;;;5054572;28;20462;-59
2022/08/07 06:37:45;;;;;;;2.63;0.93;;;21.50;85.20;;;;;;5053784;28;20111;-60
2022/08/07 06:40:11;;;;;;;2.70;0.98;;;21.90;85.70;;;;;;5053811;28;20120;-59
2022/08/07 06:42:41;;;;;;;1.73;1.10;;;22.30;83.90;;;;;;5053812;28;20029;-59
2022/08/07 06:45:12;;;;;;;1.88;1.20;;;22.70;82.20;;;;;;5053890;28;20505;-59
2022/08/07 06:47:38;;;;;;;3.10;1.10;;;23.00;81.50;;;;;;5053577;28;20056;-59
2022/08/07 06:50:05;;;;;;;2.80;1.10;;;23.50;80.10;;;;;;5053830;28;20060;-59
2022/08/07 06:52:34;;;;;;;6.22;1.20;;;23.90;79.00;;;;;;5054451;28;20079;-59
2022/08/07 06:55:02;;;;;;;2.80;1.17;;;24.30;78.50;;;;;;5053866;28;20029;-59
2022/08/07 06:57:30;;;;;;;4.18;1.20;;;24.60;78.20;;;;;;5053737;28;20032;-60
2022/08/07 06:59:58;;;;;;;2.30;1.00;;;25.00;76.40;;;;;;5053697;28;20489;-59
2022/08/07 07:02:25;;;;;;;3.45;1.00;;;25.50;76.70;;;;;;5053322;28;20378;-59
2022/08/07 07:04:51;;;;;;;4.50;1.00;;;25.90;76.20;;;;;;5053720;28;20037;-59
2022/08/07 07:07:17;;;;;;;1.75;1.00;;;26.30;75.00;;;;;;5053938;28;20128;-60
2022/08/07 07:09:48;;;;;;;3.58;1.20;;;26.60;73.10;;;;;;5053437;28;20071;-59
2022/08/07 07:12:41;;;;;;;1.35;0.90;;;26.70;71.90;;;;;;5053475;28;20044;-59
2022/08/07 07:15:25;;;;;;;2.85;0.90;;;27.10;72.10;;;;;;5053249;28;20043;-59
2022/08/07 07:18:01;;;;;;;3.13;0.98;;;27.50;71.80;;;;;;5053605;28;20384;-60
2022/08/07 07:20:57;;;;;;;3.78;1.10;;;27.50;70.10;;;;;;5053814;28;20047;-60
2022/08/07 07:23:25;;;;;;;4.22;1.05;;;27.70;69.50;;;;;;5052096;28;20082;-59
2022/08/07 07:25:55;;;;;;;1.05;0.88;;;27.80;70.40;;;;;;5051804;28;20025;-60
2022/08/07 07:28:28;;;;;;;3.03;0.82;;;28.30;70.80;;;;;;5053440;28;20048;-59
2022/08/07 07:31:03;;;;;;;4.70;1.20;;;28.40;67.80;;;;;;5052939;28;20135;-59
2022/08/07 07:33:32;;;;;;;5.20;1.77;;;28.70;69.10;;;;;;5053028;28;20039;-59
2022/08/07 07:35:59;;;;;;;2.40;0.93;;;28.70;67.10;;;;;;5053059;28;20056;-60
2022/08/07 07:38:24;;;;;;;1.77;1.00;;;29.10;67.60;;;;;;5053198;28;20025;-59
2022/08/07 07:40:55;;;;;;;2.78;0.90;;;29.40;66.90;;;;;;5052910;28;20020;-60
2022/08/07 07:43:22;;;;;;;1.73;0.90;;;29.30;67.10;;;;;;5052857;28;20048;-60
2022/08/07 07:45:49;;;;;;;1.80;0.80;;;29.80;66.70;;;;;;5052541;28;20025;-59
2022/08/07 07:48:20;;;;;;;2.78;1.25;;;30.10;66.00;;;;;;5053155;28;20025;-60
2022/08/07 07:50:47;;;;;;;2.65;0.93;;;30.10;65.50;;;;;;5052003;28;20036;-59
2022/08/07 07:53:16;;;;;;;3.92;1.00;;;30.10;66.00;;;;;;5052612;28;20044;-60
2022/08/07 07:55:42;;;;;;;2.97;1.00;;;30.30;65.10;;;;;;5052552;28;20021;-60
2022/08/07 07:58:09;;;;;;;2.35;0.88;;;30.40;64.90;;;;;;5052388;28;20041;-60
2022/08/07 08:00:35;;;;;;;2.30;0.80;;;30.70;65.30;;;;;;5052166;28;20025;-60
2022/08/07 08:03:14;;;;;;;2.03;0.90;;;31.10;67.10;;;;;;5052713;28;20088;-59
2022/08/07 08:05:41;;;;;;;2.17;0.93;;;31.50;66.60;;;;;;5052581;28;20025;-59
2022/08/07 08:08:09;;;;;;;3.58;1.05;;;31.70;66.00;;;;;;5052384;28;20036;-60
2022/08/07 08:10:36;;;;;;;1.77;1.08;;;31.80;62.90;;;;;;5052800;28;20359;-60
2022/08/07 08:13:03;;;;;;;3.00;1.10;;;31.70;63.60;;;;;;5051966;28;20465;-59
2022/08/07 08:15:33;;;;;;;3.58;1.10;;;31.80;64.30;;;;;;5052329;28;20025;-59
2022/08/07 08:17:59;;;;;;;2.80;1.23;;;31.90;63.10;;;;;;5052304;28;20090;-60
2022/08/07 08:20:29;;;;;;;4.82;1.10;;;32.30;63.20;;;;;;5052299;28;20025;-60
2022/08/07 08:28:28;;;;;;;3.03;1.20;;;32.40;61.40;;;;;;5052394;28;20087;-60
2022/08/07 08:30:59;;;;;;;3.15;2.15;;;32.70;61.40;;;;;;5051694;28;20025;-60
2022/08/07 08:33:29;;;;;;;2.75;1.00;;;33.00;61.30;;;;;;5052495;28;20036;-59
2022/08/07 08:35:57;;;;;;;2.13;1.20;;;32.80;61.60;;;;;;5052105;28;20075;-60
2022/08/07 08:38:26;;;;;;;4.07;1.10;;;32.50;61.40;;;;;;5051765;28;20033;-60
2022/08/07 08:41:17;;;;;;;2.30;0.98;;;32.70;60.90;;;;;;5052196;28;20024;-60
2022/08/07 08:44:07;;;;;;;2.08;1.15;;;33.10;63.20;;;;;;5051516;28;20052;-59
2022/08/07 08:47:05;;;;;;;3.92;1.23;;;33.50;60.70;;;;;;5052189;28;20511;-59
2022/08/07 08:49:49;;;;;;;2.20;1.00;;;33.20;61.40;;;;;;5029649;28;20398;-60
2022/08/07 08:52:27;;;;;;;4.38;1.13;;;34.00;60.60;;;;;;5029617;28;20046;-59
2022/08/07 08:55:01;;;;;;;1.10;1.00;;;34.30;61.00;;;;;;5029790;28;20132;-60
2022/08/07 08:58:09;;;;;;;2.33;1.15;;;34.40;61.00;;;;;;5029848;28;20064;-59
2022/08/07 09:01:01;;;;;;;2.05;1.05;;;34.00;59.30;;;;;;5029319;28;20026;-60
2022/08/07 09:03:36;;;;;;;1.98;1.00;;;34.40;60.80;;;;;;5033775;28;20034;-60
2022/08/07 09:06:16;;;;;;;6.30;1.50;;;34.90;60.60;;;;;;5033608;28;20132;-60
2022/08/07 09:08:56;;;;;;;2.55;1.10;;;35.10;61.70;;;;;;5033579;28;20021;-60
2022/08/07 09:12:03;;;;;;;2.65;1.30;;;35.00;60.70;;;;;;5033167;28;20036;-59
2022/08/07 09:14:42;;;;;;;2.53;1.38;;;35.00;58.90;;;;;;5032818;28;20139;-60
2022/08/07 09:17:16;;;;;;;1.30;1.00;;;35.10;60.90;;;;;;5033332;28;20140;-60
2022/08/07 09:19:48;;;;;;;3.15;1.10;;;34.50;59.00;;;;;;5033396;28;20395;-59
2022/08/07 09:22:26;;;;;;;2.47;1.00;;;34.80;59.00;;;;;;5033400;28;20429;-59
2022/08/07 09:25:11;;;;;;;4.47;1.30;;;34.80;58.70;;;;;;5042059;28;20037;-60
2022/08/07 09:27:58;;;;;;;2.40;1.10;;;34.30;59.10;;;;;;5054937;28;20025;-59
2022/08/07 09:30:39;;;;;;;1.52;1.00;;;34.70;60.20;;;;;;5055291;28;20033;-60
2022/08/07 09:33:51;;;;;;;3.28;1.10;;;35.00;60.30;;;;;;5055354;28;20036;-60
2022/08/07 09:36:38;;;;;;;2.53;1.08;;;35.40;58.40;;;;;;5055023;28;20043;-59
2022/08/07 09:39:21;;;;;;;2.78;1.25;;;35.30;58.60;;;;;;5055003;28;20573;-60
2022/08/07 09:42:05;;;;;;;3.22;1.17;;;35.10;58.70;;;;;;5055186;28;20032;-59
2022/08/07 09:44:44;;;;;;;6.07;1.20;;;34.80;58.60;;;;;;5054960;28;20107;-60
2022/08/07 09:47:21;;;;;;;3.75;1.08;;;34.50;57.80;;;;;;5054951;28;20017;-60
2022/08/07 09:50:23;;;;;;;1.52;1.02;;;34.40;59.60;;;;;;5054885;28;20104;-59
2022/08/07 09:52:57;;;;;;;1.83;1.27;;;35.00;58.30;;;;;;5054840;28;20021;-59
2022/08/07 09:55:40;;;;;;;3.55;1.15;;;34.40;58.20;;;;;;5054924;28;20033;-59
2022/08/07 09:58:39;;;;;;;2.85;1.10;;;34.50;58.20;;;;;;5055032;28;20029;-59
2022/08/07 10:01:36;;;;;;;4.55;1.30;;;35.00;61.00;;;;;;5055091;28;20017;-60
2022/08/07 10:04:39;;;;;;;5.35;1.45;;;35.00;59.40;;;;;;5055030;28;20086;-59
2022/08/07 10:07:11;;;;;;;3.00;1.20;;;34.70;57.60;;;;;;5054459;28;20088;-59
2022/08/07 10:10:10;;;;;;;2.10;1.10;;;34.00;57.90;;;;;;5054219;28;20039;-60
2022/08/07 10:13:04;;;;;;;2.05;1.13;;;34.70;58.80;;;;;;5054188;28;20576;-59
2022/08/07 10:15:54;;;;;;;2.67;1.30;;;35.00;59.10;;;;;;5054422;28;20111;-60
2022/08/07 10:18:49;;;;;;;2.47;1.00;;;34.50;57.70;;;;;;5054373;28;20331;-59
2022/08/07 10:21:23;;;;;;;1.90;1.05;;;34.20;59.10;;;;;;5031999;28;20115;-59
2022/08/07 10:24:03;;;;;;;4.50;1.20;;;34.10;58.30;;;;;;5032265;28;20029;-60
2022/08/07 10:26:46;;;;;;;1.75;1.20;;;34.10;59.60;;;;;;5032062;28;20045;-59
2022/08/07 10:29:54;;;;;;;1.98;1.10;;;34.60;59.80;;;;;;5032110;28;20029;-59
2022/08/07 10:32:28;;;;;;;2.03;1.08;;;34.80;60.10;;;;;;5024198;28;20379;-59
2022/08/07 10:35:25;;;;;;;3.15;1.50;;;34.80;59.70;;;;;;5031811;28;20044;-59
2022/08/07 10:37:54;;;;;;;4.38;1.30;;;34.80;60.30;;;;;;5031326;28;20026;-59
2022/08/07 10:40:32;;;;;;;2.42;1.10;;;34.80;58.50;;;;;;5031948;28;20029;-59
2022/08/07 10:43:26;;;;;;;3.40;1.38;;;34.90;61.60;;;;;;5031460;28;20033;-59
2022/08/07 10:45:58;;;;;;;3.38;1.30;;;35.00;59.70;;;;;;5031781;28;20045;-59
2022/08/07 10:48:56;;;;;;;2.75;1.10;;;35.10;60.40;;;;;;5031622;28;20111;-59
2022/08/07 10:51:56;;;;;;;2.17;1.15;;;35.20;60.00;;;;;;5015566;28;20057;-59
2022/08/07 10:55:02;;;;;;;2.38;1.10;;;35.10;59.30;;;;;;5031349;28;20068;-59
2022/08/07 10:57:57;;;;;;;2.83;1.33;;;35.20;59.20;;;;;;5031727;28;20028;-59
2022/08/07 11:00:30;;;;;;;4.65;1.30;;;34.60;56.10;;;;;;5033508;28;20029;-59
2022/08/07 11:03:04;;;;;;;4.20;1.33;;;34.60;57.00;;;;;;5033588;28;20382;-59
2022/08/07 11:05:44;;;;;;;1.95;1.00;;;34.20;57.60;;;;;;5033689;28;20433;-59
2022/08/07 11:08:33;;;;;;;2.72;1.30;;;34.00;56.90;;;;;;5033188;28;20056;-59
2022/08/07 11:11:10;;;;;;;3.03;1.23;;;33.70;57.20;;;;;;5033412;28;20493;-59
2022/08/07 11:13:48;;;;;;;3.30;1.40;;;33.80;56.50;;;;;;5033335;28;20459;-59
2022/08/07 11:16:37;;;;;;;1.60;1.30;;;33.40;57.20;;;;;;5033336;28;20025;-59
2022/08/07 11:19:41;;;;;;;4.10;1.27;;;33.20;57.30;;;;;;5033150;28;20033;-60
2022/08/07 11:22:14;;;;;;;;;;;34.10;56.90;;;;;;5011286;28;20525;-59
2022/08/07 11:25:15;;;;;;;2.42;1.40;;;33.60;56.10;;;;;;5010382;28;20398;-59
2022/08/07 11:28:01;;;;;;;3.10;1.30;;;33.40;56.60;;;;;;5011112;28;20072;-62
2022/08/07 11:30:53;;;;;;;3.83;1.33;;;33.20;57.00;;;;;;5011413;28;20518;-59
2022/08/07 11:33:41;;;;;;;2.25;1.95;;;33.20;57.00;;;;;;4991012;28;20038;-59
2022/08/07 11:36:17;;;;;;;1.73;1.23;;;33.40;57.90;;;;;;5010552;28;20069;-59
2022/08/07 11:38:57;;;;;;;3.38;1.40;;;33.40;58.30;;;;;;5020087;28;20537;-60
2022/08/07 11:41:31;;;;;;;2.63;1.30;;;33.70;57.60;;;;;;5030686;28;20512;-60
2022/08/07 11:44:15;;;;;;;2.08;1.35;;;33.30;57.90;;;;;;5030563;28;20053;-59
2022/08/07 11:46:45;;;;;;;1.67;1.20;;;33.30;56.60;;;;;;5030701;28;20064;-59
2022/08/07 11:49:31;;;;;;;1.98;1.10;;;33.40;58.50;;;;;;5030848;28;20107;-60
2022/08/07 11:52:56;;;;;;;2.35;1.80;;;33.60;59.40;;;;;;5030456;28;20399;-62
2022/08/07 11:55:57;;;;;;;2.78;1.40;;;33.40;55.90;;;;;;4971821;28;20384;-59
2022/08/07 11:59:03;;;;;;;2.47;1.30;;;33.20;56.40;;;;;;4905638;28;20036;-59
2022/08/07 12:02:01;;;;;;;1.30;1.20;;;33.20;56.10;;;;;;4895342;29;20036;-59
2022/08/07 12:04:59;;;;;;;1.83;1.25;;;32.80;55.60;;;;;;4895347;29;20052;-59
2022/08/07 12:07:32;;;;;;;2.65;1.52;;;32.60;54.40;;;;;;4895619;29;20024;-60
2022/08/07 12:10:16;;;;;;;;;;;32.60;53.70;;;;;;4895960;29;20032;-59
2022/08/07 12:13:01;;;;;;;2.25;1.52;;;32.90;56.10;;;;;;4895256;29;19911;-59
2022/08/07 12:15:33;;;;;;;2.88;1.38;;;33.10;55.50;;;;;;4895014;29;20119;-59
2022/08/07 12:18:18;;;;;;;1.88;1.40;;;33.00;57.20;;;;;;4895104;29;20039;-59
2022/08/07 12:20:46;;;;;;;2.10;1.38;;;32.80;58.20;;;;;;4879156;29;20048;-59
2022/08/07 12:23:39;;;;;;;3.58;1.27;;;32.80;58.20;;;;;;4894968;29;20064;-59
2022/08/07 12:26:13;;;;;;;1.77;1.27;;;32.80;56.30;;;;;;4894970;29;20025;-59
2022/08/07 12:28:42;;;;;;;2.63;1.20;;;32.70;56.60;;;;;;4902584;29;20140;-59
2022/08/07 12:31:21;;;;;;;3.55;1.38;;;33.10;57.60;;;;;;4932587;29;20035;-59
2022/08/07 12:33:48;;;;;;;3.05;1.65;;;32.80;54.50;;;;;;4932773;29;20039;-58
2022/08/07 12:36:15;;;;;;;1.75;1.27;;;32.70;53.60;;;;;;4980494;28;20035;-59
2022/08/07 12:38:44;;;;;;;1.92;1.50;;;32.70;54.30;;;;;;5001582;28;20034;-59
2022/08/07 12:41:11;;;;;;;1.92;1.20;;;32.90;53.90;;;;;;5012332;28;20403;-59
2022/08/07 12:43:39;;;;;;;1.85;1.17;;;32.90;53.40;;;;;;5028557;28;20059;-59
2022/08/07 12:46:34;;;;;;;2.05;1.50;;;32.80;53.60;;;;;;5051819;28;20036;-59
2022/08/07 12:49:11;;;;;;;2.83;1.30;;;32.60;57.10;;;;;;5029165;28;20401;-59
2022/08/07 12:51:50;;;;;;;2.08;1.42;;;32.70;58.70;;;;;;5029626;28;20103;-59
2022/08/07 12:54:30;;;;;;;1.58;1.20;;;32.80;57.10;;;;;;5029481;28;20410;-59
2022/08/07 12:56:59;;;;;;;1.40;1.23;;;32.80;56.60;;;;;;5029603;28;20050;-59
2022/08/07 12:59:30;;;;;;;2.58;1.30;;;32.80;58.60;;;;;;5029958;28;20179;-60
2022/08/07 13:02:07;;;;;;;2.63;1.33;;;33.10;57.50;;;;;;5029282;28;20018;-59
2022/08/07 13:04:44;;;;;;;2.47;1.40;;;33.20;57.80;;;;;;5029363;28;20034;-59
2022/08/07 13:07:21;;;;;;;1.60;1.38;;;33.00;56.90;;;;;;5029962;28;20037;-59
2022/08/07 13:10:09;;;;;;;1.55;1.40;;;33.00;58.90;;;;;;5029573;28;20033;-59
2022/08/07 13:13:07;;;;;;;1.60;1.10;;;33.00;57.80;;;;;;5029396;28;20044;-59
2022/08/07 13:15:52;;;;;;;1.50;1.30;;;33.10;59.60;;;;;;5029291;28;20514;-59
2022/08/07 13:18:42;;;;;;;3.35;1.17;;;33.30;58.60;;;;;;5029426;28;20102;-59
2022/08/07 13:21:45;;;;;;;2.65;1.30;;;33.30;60.40;;;;;;5029943;28;20021;-59
2022/08/07 13:24:34;;;;;;;1.40;1.30;;;33.10;57.90;;;;;;4989908;28;20030;-59
2022/08/07 13:27:10;;;;;;;2.70;1.30;;;33.00;59.00;;;;;;5007251;28;20113;-59
2022/08/07 13:29:44;;;;;;;2.05;1.50;;;33.10;57.70;;;;;;5009845;28;20026;-60